Time;durP1;ratioP1;P1;durP2;ratioP2;P2;SDS_P1;SDS_P2;PMS_P1;PMS_P2;Temp;Humidity;BMP_temperature;BMP_pressure;BME280_temperature;BME280_humidity;BME280_pressure;Samples;Min_cycle;Max_cycle;Signal;HPM_P1;HPM_P2
2022/11/19 00:00:22;;;;;;;14.52;11.18;;;;;;;;;;5086915;28;20047;-70
2022/11/19 00:02:49;;;;;;;14.18;12.27;;;;;;;;;;5085164;28;20418;-71
2022/11/19 00:05:15;;;;;;;13.73;11.40;;;;;;;;;;5086580;28;20046;-70
2022/11/19 00:07:41;;;;;;;15.38;11.20;;;;;;;;;;5084426;28;20051;-70
2022/11/19 00:10:07;;;;;;;13.00;11.27;;;;;;;;;;5084464;28;20418;-67
2022/11/19 00:15:17;;;;;;;14.13;10.82;;;;;;;;;;5085098;28;20067;-70
2022/11/19 00:17:43;;;;;;;15.95;11.23;;;;;;;;;;5069608;28;20078;-69
2022/11/19 00:20:09;;;;;;;12.85;11.02;;;;;;;;;;5086955;28;20272;-68
2022/11/19 00:22:35;;;;;;;12.65;10.60;;;;;;;;;;5089135;28;20039;-69
2022/11/19 00:25:02;;;;;;;15.43;10.75;;;;;;;;;;5089616;28;20090;-68
2022/11/19 00:27:28;;;;;;;12.73;11.05;;;;;;;;;;5087221;28;20047;-69
2022/11/19 00:29:54;;;;;;;13.57;10.82;;;;;;;;;;5084667;28;20048;-70
2022/11/19 00:32:20;;;;;;;12.75;10.75;;;;;;;;;;5099798;28;20544;-68
2022/11/19 00:34:46;;;;;;;13.10;10.55;;;;;;;;;;5087070;28;20620;-70
2022/11/19 00:37:12;;;;;;;12.63;10.18;;;;;;;;;;5085040;28;20055;-69
2022/11/19 00:39:38;;;;;;;14.35;10.18;;;;;;;;;;5086225;28;20051;-69
2022/11/19 00:42:04;;;;;;;10.65;9.18;;;;;;;;;;5083714;28;20116;-69
2022/11/19 00:44:30;;;;;;;12.60;9.25;;;;;;;;;;5085638;28;20421;-69
2022/11/19 00:46:55;;;;;;;12.05;9.70;;;;;;;;;;5086974;28;20058;-69
2022/11/19 00:49:22;;;;;;;13.10;8.80;;;;;;;;;;5082992;27;20056;-69
2022/11/19 00:51:48;;;;;;;9.95;8.70;;;;;;;;;;5105202;28;20046;-69
2022/11/19 00:54:14;;;;;;;11.75;9.43;;;;;;;;;;5081440;28;20044;-69
2022/11/19 00:56:39;;;;;;;11.75;9.20;;;;;;;;;;5085579;28;20175;-68
2022/11/19 00:59:06;;;;;;;10.63;8.63;;;;;;;;;;5103033;28;20284;-69
2022/11/19 01:01:32;;;;;;;10.77;8.50;;;;;;;;;;5086852;28;20108;-69
2022/11/19 01:03:58;;;;;;;10.55;8.38;;;;;;;;;;5083054;28;20548;-69
2022/11/19 01:06:24;;;;;;;11.25;8.45;;;;;;;;;;5084490;28;20044;-68
2022/11/19 01:08:51;;;;;;;10.20;7.50;;;;;;;;;;5085481;28;20126;-68
2022/11/19 01:11:18;;;;;;;8.40;7.50;;;;;;;;;;5085568;28;20516;-68
2022/11/19 01:13:45;;;;;;;8.55;6.90;;;;;;;;;;5098096;28;20108;-69
2022/11/19 01:16:22;;;;;;;8.10;6.82;;;;;;;;;;5085916;28;20428;-70
2022/11/19 01:18:49;;;;;;;6.95;6.22;;;;;;;;;;5082280;28;20538;-70
2022/11/19 01:21:15;;;;;;;8.60;6.43;;;;;;;;;;5086968;28;20052;-68
2022/11/19 01:23:42;;;;;;;8.35;5.97;;;;;;;;;;5086370;28;20039;-70
2022/11/19 01:26:09;;;;;;;7.13;5.97;;;;;;;;;;5087706;28;20043;-69
2022/11/19 01:28:35;;;;;;;8.55;5.97;;;;;;;;;;5086113;28;21691;-71
2022/11/19 01:31:06;;;;;;;6.63;5.80;;;;;;;;;;5087923;28;20049;-71
2022/11/19 01:33:33;;;;;;;5.93;5.20;;;;;;;;;;5084360;28;20067;-69
2022/11/19 01:35:59;;;;;;;7.05;5.25;;;;;;;;;;5083595;28;20501;-68
2022/11/19 01:38:26;;;;;;;6.70;5.57;;;;;;;;;;5100007;27;20040;-69
2022/11/19 01:40:52;;;;;;;5.68;5.10;;;;;;;;;;5083095;28;20158;-69
2022/11/19 01:43:18;;;;;;;5.90;5.30;;;;;;;;;;5082888;28;20044;-69
2022/11/19 01:45:48;;;;;;;6.57;5.32;;;;;;;;;;5084965;28;20061;-68
2022/11/19 01:48:14;;;;;;;6.07;5.20;;;;;;;;;;5082711;28;20047;-69
2022/11/19 01:50:46;;;;;;;7.07;5.32;;;;;;;;;;5082461;28;20047;-69
2022/11/19 01:53:13;;;;;;;6.95;5.50;;;;;;;;;;5082369;28;20043;-68
2022/11/19 01:55:40;;;;;;;10.27;5.35;;;;;;;;;;5087914;28;22016;-69
2022/11/19 01:58:06;;;;;;;9.40;5.68;;;;;;;;;;5099125;28;20427;-68
2022/11/19 02:00:33;;;;;;;6.18;4.90;;;;;;;;;;5082828;28;20131;-69
2022/11/19 02:02:59;;;;;;;6.55;5.30;;;;;;;;;;5082104;28;20038;-70
2022/11/19 02:05:26;;;;;;;7.10;5.50;;;;;;;;;;5084388;28;20044;-69
2022/11/19 02:07:53;;;;;;;6.45;5.50;;;;;;;;;;5098667;28;20128;-68
2022/11/19 02:10:21;;;;;;;6.70;5.35;;;;;;;;;;5071283;28;20067;-68
2022/11/19 02:12:54;;;;;;;7.20;5.43;;;;;;;;;;5082794;28;20047;-68
2022/11/19 02:15:33;;;;;;;5.85;5.18;;;;;;;;;;5084080;28;20055;-68
2022/11/19 02:18:22;;;;;;;7.35;5.32;;;;;;;;;;5086511;28;20052;-67
2022/11/19 02:20:51;;;;;;;8.45;5.30;;;;;;;;;;5086784;28;20032;-69
2022/11/19 02:23:20;;;;;;;6.85;5.50;;;;;;;;;;5082203;28;20452;-70
2022/11/19 02:25:55;;;;;;;6.25;5.32;;;;;;;;;;5081044;28;20456;-69
2022/11/19 02:28:42;;;;;;;8.02;5.38;;;;;;;;;;5084913;28;20486;-69
2022/11/19 02:31:20;;;;;;;7.38;5.97;;;;;;;;;;5083903;28;20161;-69
2022/11/19 02:33:59;;;;;;;7.03;5.50;;;;;;;;;;5102923;28;20078;-68
2022/11/19 02:36:27;;;;;;;6.30;5.70;;;;;;;;;;5082156;28;20138;-66
2022/11/19 02:39:08;;;;;;;6.65;5.50;;;;;;;;;;5083507;28;20126;-66
2022/11/19 02:41:48;;;;;;;6.78;5.82;;;;;;;;;;5080833;28;20043;-66
2022/11/19 02:47:15;;;;;;;7.65;6.05;;;;;;;;;;5082017;28;20044;-66
2022/11/19 02:49:43;;;;;;;7.15;5.78;;;;;;;;;;5081247;28;20156;-65
2022/11/19 02:52:10;;;;;;;6.57;5.38;;;;;;;;;;5083604;28;20073;-65
2022/11/19 02:54:36;;;;;;;9.68;5.63;;;;;;;;;;5084549;28;20391;-65
2022/11/19 02:57:02;;;;;;;9.82;5.70;;;;;;;;;;5101268;28;20086;-65
2022/11/19 03:04:59;;;;;;;6.38;5.13;;;;;;;;;;5100558;28;20036;-67
2022/11/19 03:07:25;;;;;;;7.10;5.70;;;;;;;;;;5084064;28;20164;-64
2022/11/19 03:09:55;;;;;;;7.50;5.53;;;;;;;;;;5101661;28;20417;-65
2022/11/19 03:12:36;;;;;;;7.65;5.70;;;;;;;;;;5080301;28;20105;-64
2022/11/19 03:18:00;;;;;;;8.10;6.28;;;;;;;;;;5082666;28;20099;-66
2022/11/19 03:20:31;;;;;;;7.47;6.10;;;;;;;;;;5082480;28;20557;-64
2022/11/19 03:23:09;;;;;;;6.68;5.55;;;;;;;;;;5084335;28;20051;-67
2022/11/19 03:25:39;;;;;;;6.93;5.82;;;;;;;;;;5083190;28;20043;-65
2022/11/19 03:28:07;;;;;;;7.90;5.88;;;;;;;;;;5099711;28;20086;-67
2022/11/19 03:30:33;;;;;;;6.75;5.32;;;;;;;;;;5086524;28;20044;-67
2022/11/19 03:33:02;;;;;;;7.22;5.90;;;;;;;;;;5084349;28;20098;-67
2022/11/19 03:35:31;;;;;;;6.57;5.78;;;;;;;;;;5085983;28;20519;-65
2022/11/19 03:37:58;;;;;;;6.80;5.57;;;;;;;;;;5087194;28;20055;-67
2022/11/19 03:40:25;;;;;;;7.32;5.40;;;;;;;;;;5089720;28;20043;-66
2022/11/19 03:42:53;;;;;;;6.38;5.22;;;;;;;;;;5087399;27;20067;-66
2022/11/19 03:45:22;;;;;;;6.47;5.55;;;;;;;;;;5106969;27;20362;-66
2022/11/19 03:47:48;;;;;;;8.63;5.20;;;;;;;;;;5104782;28;20035;-65
2022/11/19 03:50:18;;;;;;;6.32;4.82;;;;;;;;;;5086986;28;20048;-68
2022/11/19 03:52:44;;;;;;;7.35;5.32;;;;;;;;;;5085893;28;20075;-67
2022/11/19 03:55:10;;;;;;;6.00;5.30;;;;;;;;;;5086585;28;20083;-68
2022/11/19 03:57:37;;;;;;;6.50;5.15;;;;;;;;;;5103654;28;20079;-69
2022/11/19 04:00:03;;;;;;;5.95;5.25;;;;;;;;;;5088848;28;20079;-70
2022/11/19 04:02:29;;;;;;;5.70;5.00;;;;;;;;;;5082934;28;20043;-67
2022/11/19 04:04:55;;;;;;;6.80;5.35;;;;;;;;;;5087084;28;20036;-67
2022/11/19 04:07:22;;;;;;;7.10;5.43;;;;;;;;;;5087954;28;20051;-67
2022/11/19 04:09:48;;;;;;;6.03;4.70;;;;;;;;;;5086369;28;20039;-67
2022/11/19 04:12:16;;;;;;;6.45;5.18;;;;;;;;;;5101636;28;20093;-67
2022/11/19 04:14:42;;;;;;;5.85;4.82;;;;;;;;;;5085466;28;20040;-67
2022/11/19 04:17:08;;;;;;;7.88;5.10;;;;;;;;;;5089663;28;20478;-67
2022/11/19 04:19:34;;;;;;;7.13;5.00;;;;;;;;;;5085209;28;20040;-67
2022/11/19 04:22:00;;;;;;;5.88;4.80;;;;;;;;;;5084029;28;20102;-70
2022/11/19 04:24:26;;;;;;;8.48;4.70;;;;;;;;;;5066906;28;20044;-67
2022/11/19 04:26:52;;;;;;;9.25;5.60;;;;;;;;;;5085773;28;20387;-67
2022/11/19 04:29:18;;;;;;;7.68;5.75;;;;;;;;;;5088851;27;20054;-67
2022/11/19 04:31:44;;;;;;;6.03;4.85;;;;;;;;;;5103895;28;20040;-68
2022/11/19 04:34:10;;;;;;;7.15;5.20;;;;;;;;;;5073581;27;20230;-68
2022/11/19 04:36:36;;;;;;;5.95;4.93;;;;;;;;;;5105548;27;20055;-67
2022/11/19 04:39:02;;;;;;;5.78;4.80;;;;;;;;;;5102582;28;20494;-67
2022/11/19 04:41:28;;;;;;;5.97;5.10;;;;;;;;;;5070588;28;20180;-67
2022/11/19 04:43:54;;;;;;;6.97;4.72;;;;;;;;;;5101461;28;20490;-67
2022/11/19 04:46:20;;;;;;;6.65;5.18;;;;;;;;;;5086843;27;20208;-70
2022/11/19 04:48:46;;;;;;;6.85;5.10;;;;;;;;;;5103127;27;20059;-69
2022/11/19 04:51:12;;;;;;;7.03;5.40;;;;;;;;;;5085648;28;20044;-68
2022/11/19 04:53:38;;;;;;;7.35;5.10;;;;;;;;;;5103131;27;20040;-67
2022/11/19 04:56:04;;;;;;;6.95;5.07;;;;;;;;;;5105753;28;20038;-67
2022/11/19 04:58:30;;;;;;;7.00;4.90;;;;;;;;;;5085140;28;20051;-70
2022/11/19 05:00:56;;;;;;;7.10;5.32;;;;;;;;;;5084924;28;21294;-68
2022/11/19 05:03:22;;;;;;;6.88;4.85;;;;;;;;;;5083349;28;20181;-70
2022/11/19 05:05:48;;;;;;;6.22;4.90;;;;;;;;;;5083185;28;20184;-70
2022/11/19 05:08:14;;;;;;;6.47;5.20;;;;;;;;;;5083781;28;20151;-67
2022/11/19 05:10:40;;;;;;;6.75;5.55;;;;;;;;;;5084630;28;20525;-70
2022/11/19 05:13:06;;;;;;;5.72;5.05;;;;;;;;;;5084614;28;20048;-67
2022/11/19 05:15:32;;;;;;;7.35;5.72;;;;;;;;;;5100520;28;20173;-67
2022/11/19 05:17:58;;;;;;;6.28;5.20;;;;;;;;;;5083359;28;20689;-69
2022/11/19 05:20:24;;;;;;;7.22;5.55;;;;;;;;;;5086263;28;20047;-67
2022/11/19 05:22:50;;;;;;;6.55;5.53;;;;;;;;;;5083395;28;20063;-69
2022/11/19 05:25:16;;;;;;;7.68;5.55;;;;;;;;;;5103112;28;20110;-70
2022/11/19 05:27:42;;;;;;;6.75;5.47;;;;;;;;;;5082964;28;20047;-70
2022/11/19 05:30:09;;;;;;;6.45;5.43;;;;;;;;;;5084990;28;20043;-69
2022/11/19 05:32:35;;;;;;;6.03;5.40;;;;;;;;;;5102275;27;20127;-70
2022/11/19 05:35:01;;;;;;;6.50;5.35;;;;;;;;;;5100697;28;20050;-69
2022/11/19 05:37:27;;;;;;;8.75;5.82;;;;;;;;;;5083362;27;20745;-70
2022/11/19 05:39:53;;;;;;;9.80;5.53;;;;;;;;;;5081432;28;20118;-70
2022/11/19 05:42:19;;;;;;;6.72;5.45;;;;;;;;;;5101488;27;20039;-70
2022/11/19 05:44:45;;;;;;;8.95;6.15;;;;;;;;;;5090153;28;20055;-70
2022/11/19 05:47:11;;;;;;;7.18;5.57;;;;;;;;;;5088629;28;20077;-70
2022/11/19 05:49:37;;;;;;;9.13;6.25;;;;;;;;;;5082453;28;20047;-70
2022/11/19 05:52:03;;;;;;;8.30;5.90;;;;;;;;;;5082331;28;20055;-68
2022/11/19 05:54:29;;;;;;;9.82;6.50;;;;;;;;;;5081670;28;20256;-70
2022/11/19 05:56:55;;;;;;;7.30;5.95;;;;;;;;;;5084566;28;21075;-70
2022/11/19 05:59:21;;;;;;;8.50;5.75;;;;;;;;;;5094011;27;20063;-70
2022/11/19 06:01:47;;;;;;;7.82;6.43;;;;;;;;;;5087946;28;20078;-70
2022/11/19 06:04:13;;;;;;;8.80;6.40;;;;;;;;;;5078844;28;20044;-68
2022/11/19 06:06:39;;;;;;;8.20;6.57;;;;;;;;;;5080088;28;20044;-68
2022/11/19 06:09:05;;;;;;;7.82;5.53;;;;;;;;;;5083301;28;20073;-70
2022/11/19 06:11:46;;;;;;;8.43;6.50;;;;;;;;;;5085750;28;20054;-69
2022/11/19 06:14:16;;;;;;;7.57;6.40;;;;;;;;;;5101609;27;20043;-69
2022/11/19 06:16:42;;;;;;;8.40;6.32;;;;;;;;;;5085467;28;20047;-69
2022/11/19 06:19:08;;;;;;;7.80;6.57;;;;;;;;;;5084926;28;20123;-70
2022/11/19 06:21:34;;;;;;;7.82;6.30;;;;;;;;;;5102544;28;20119;-70
2022/11/19 06:24:00;;;;;;;9.63;7.13;;;;;;;;;;5081649;28;20047;-69
2022/11/19 06:26:27;;;;;;;9.02;7.20;;;;;;;;;;5099775;28;20032;-69
2022/11/19 06:28:53;;;;;;;9.80;7.50;;;;;;;;;;5099823;27;20047;-70
2022/11/19 06:31:20;;;;;;;8.77;7.72;;;;;;;;;;5084355;28;20050;-68
2022/11/19 06:33:46;;;;;;;11.32;8.05;;;;;;;;;;5083799;27;20062;-71
2022/11/19 06:36:12;;;;;;;9.60;7.93;;;;;;;;;;5086611;28;20051;-68
2022/11/19 06:38:38;;;;;;;11.27;8.75;;;;;;;;;;5083785;28;20096;-68
2022/11/19 06:41:04;;;;;;;10.63;8.25;;;;;;;;;;5084083;28;20036;-67
2022/11/19 06:43:30;;;;;;;10.50;8.38;;;;;;;;;;5084382;28;20042;-67
2022/11/19 06:45:56;;;;;;;11.40;9.30;;;;;;;;;;5083810;28;21108;-71
2022/11/19 06:48:22;;;;;;;11.27;8.32;;;;;;;;;;5082304;28;20100;-68
2022/11/19 06:50:48;;;;;;;10.95;9.20;;;;;;;;;;5083706;28;20111;-67
2022/11/19 06:53:15;;;;;;;11.18;9.15;;;;;;;;;;5081036;28;20135;-68
2022/11/19 06:55:41;;;;;;;11.45;8.93;;;;;;;;;;5082444;28;20052;-68
2022/11/19 06:58:07;;;;;;;10.70;9.23;;;;;;;;;;5097624;28;20443;-71
2022/11/19 07:00:34;;;;;;;12.30;9.90;;;;;;;;;;5084936;28;20066;-67
2022/11/19 07:03:00;;;;;;;13.30;9.68;;;;;;;;;;5083133;28;20044;-68
2022/11/19 07:05:26;;;;;;;13.23;10.20;;;;;;;;;;5088153;28;22267;-67
2022/11/19 07:07:52;;;;;;;15.23;10.05;;;;;;;;;;5094382;27;20031;-67
2022/11/19 07:10:18;;;;;;;14.80;9.82;;;;;;;;;;5089042;28;20109;-67
2022/11/19 07:12:44;;;;;;;18.50;10.25;;;;;;;;;;5090684;28;20051;-67
2022/11/19 07:15:11;;;;;;;15.07;9.98;;;;;;;;;;5109091;27;20044;-67
2022/11/19 07:17:37;;;;;;;12.90;10.02;;;;;;;;;;5090472;28;20056;-70
2022/11/19 07:20:04;;;;;;;14.02;10.27;;;;;;;;;;5075035;28;20345;-68
2022/11/19 07:22:29;;;;;;;14.32;10.82;;;;;;;;;;5088671;28;20059;-69
2022/11/19 07:24:55;;;;;;;13.60;10.25;;;;;;;;;;5086069;28;20066;-70
2022/11/19 07:27:21;;;;;;;14.70;10.18;;;;;;;;;;5075517;27;20052;-71
2022/11/19 07:29:47;;;;;;;18.65;10.02;;;;;;;;;;5086897;28;20459;-69
2022/11/19 07:32:13;;;;;;;20.05;10.25;;;;;;;;;;5106669;27;20178;-71
2022/11/19 07:34:39;;;;;;;12.45;9.43;;;;;;;;;;5090925;27;20409;-71
2022/11/19 07:37:05;;;;;;;12.90;10.15;;;;;;;;;;5109075;28;20051;-69
2022/11/19 07:39:31;;;;;;;13.50;10.13;;;;;;;;;;5094029;28;20058;-70
2022/11/19 07:44:42;;;;;;;12.85;10.05;;;;;;;;;;5105090;27;20039;-69
2022/11/19 07:47:08;;;;;;;13.00;9.55;;;;;;;;;;5087165;28;20066;-68
2022/11/19 07:49:34;;;;;;;12.07;9.80;;;;;;;;;;5086550;27;20401;-68
2022/11/19 07:52:00;;;;;;;16.60;9.85;;;;;;;;;;5085974;27;20701;-69
2022/11/19 07:54:26;;;;;;;14.43;10.43;;;;;;;;;;5086561;28;20047;-70
2022/11/19 07:56:52;;;;;;;11.70;9.93;;;;;;;;;;5087937;28;20391;-69
2022/11/19 07:59:18;;;;;;;13.48;10.07;;;;;;;;;;5085146;28;20046;-69
2022/11/19 08:01:44;;;;;;;12.68;10.25;;;;;;;;;;5098247;28;20042;-67
2022/11/19 08:04:10;;;;;;;13.93;9.68;;;;;;;;;;5097103;27;20459;-69
2022/11/19 08:06:37;;;;;;;10.63;9.18;;;;;;;;;;5081907;28;20047;-68
2022/11/19 08:09:03;;;;;;;11.90;9.70;;;;;;;;;;5098489;28;20043;-69
2022/11/19 08:11:29;;;;;;;14.77;9.57;;;;;;;;;;5088033;27;20044;-68
2022/11/19 08:13:57;;;;;;;11.88;10.10;;;;;;;;;;5093515;28;20036;-68
2022/11/19 08:19:10;;;;;;;12.02;9.98;;;;;;;;;;5088693;28;20052;-68
2022/11/19 08:21:39;;;;;;;13.60;9.60;;;;;;;;;;5116731;27;20036;-68
2022/11/19 08:24:05;;;;;;;12.23;10.00;;;;;;;;;;5110207;27;20048;-67
2022/11/19 08:26:31;;;;;;;11.80;9.70;;;;;;;;;;5089269;28;20047;-69
2022/11/19 08:28:57;;;;;;;11.60;9.40;;;;;;;;;;5083974;28;20543;-67
2022/11/19 08:31:23;;;;;;;11.38;9.35;;;;;;;;;;5105436;28;20046;-67
2022/11/19 08:33:49;;;;;;;13.60;9.40;;;;;;;;;;5093402;28;20406;-68
2022/11/19 08:36:15;;;;;;;11.35;9.52;;;;;;;;;;5094545;28;20071;-68
2022/11/19 08:38:41;;;;;;;10.60;9.05;;;;;;;;;;5091484;28;20044;-68
2022/11/19 08:43:51;;;;;;;12.52;9.55;;;;;;;;;;5105176;28;20043;-68
2022/11/19 08:46:17;;;;;;;11.13;8.85;;;;;;;;;;5103935;28;20410;-68
2022/11/19 08:48:43;;;;;;;11.10;8.85;;;;;;;;;;5092583;27;20048;-68
2022/11/19 08:51:09;;;;;;;17.73;9.38;;;;;;;;;;5084993;28;20100;-68
2022/11/19 08:53:35;;;;;;;11.35;9.27;;;;;;;;;;5088485;28;20036;-68
2022/11/19 08:56:02;;;;;;;9.57;8.57;;;;;;;;;;5079297;28;20047;-68
2022/11/19 08:58:27;;;;;;;11.07;9.18;;;;;;;;;;5066271;28;20422;-67
2022/11/19 09:00:54;;;;;;;10.02;8.40;;;;;;;;;;5086925;28;20056;-68
2022/11/19 09:03:20;;;;;;;11.32;9.10;;;;;;;;;;5111580;28;20035;-68
2022/11/19 09:05:46;;;;;;;11.70;8.57;;;;;;;;;;5104685;27;20036;-68
2022/11/19 09:08:12;;;;;;;11.68;9.20;;;;;;;;;;5104433;28;20047;-67
2022/11/19 09:10:39;;;;;;;12.20;9.55;;;;;;;;;;5088168;28;20044;-68
2022/11/19 09:13:05;;;;;;;10.80;8.85;;;;;;;;;;5089440;28;20043;-67
2022/11/19 09:15:31;;;;;;;9.93;8.25;;;;;;;;;;5089067;28;20517;-68
2022/11/19 09:17:58;;;;;;;10.43;8.73;;;;;;;;;;5088030;28;20138;-68
2022/11/19 09:20:24;;;;;;;10.48;8.32;;;;;;;;;;5094338;28;20071;-67
2022/11/19 09:22:50;;;;;;;11.57;8.85;;;;;;;;;;5088249;27;20049;-67
2022/11/19 09:25:16;;;;;;;10.60;8.68;;;;;;;;;;5093302;28;20437;-67
2022/11/19 09:27:42;;;;;;;10.82;8.63;;;;;;;;;;5105609;28;20075;-68
2022/11/19 09:30:08;;;;;;;11.25;8.68;;;;;;;;;;5111366;28;20483;-68
2022/11/19 09:32:34;;;;;;;10.05;8.52;;;;;;;;;;5093384;27;20409;-68
2022/11/19 09:35:00;;;;;;;13.95;8.95;;;;;;;;;;5103563;28;20050;-67
2022/11/19 09:37:30;;;;;;;9.82;8.32;;;;;;;;;;5106956;28;20401;-69
2022/11/19 09:39:56;;;;;;;10.20;8.40;;;;;;;;;;5088685;27;20039;-69
2022/11/19 09:42:25;;;;;;;11.38;8.65;;;;;;;;;;5087813;28;20108;-69
2022/11/19 09:45:00;;;;;;;12.43;8.18;;;;;;;;;;5103878;27;20114;-70
2022/11/19 09:47:44;;;;;;;10.63;8.63;;;;;;;;;;5104697;28;20058;-70
2022/11/19 09:50:16;;;;;;;11.95;9.15;;;;;;;;;;5068006;28;20048;-71
2022/11/19 09:52:55;;;;;;;10.95;8.52;;;;;;;;;;5085633;28;20036;-70
2022/11/19 09:55:30;;;;;;;9.93;8.63;;;;;;;;;;5092677;28;20052;-69
2022/11/19 09:57:57;;;;;;;13.85;11.57;;;;;;;;;;5095902;28;20040;-68
2022/11/19 10:00:25;;;;;;;12.35;9.57;;;;;;;;;;5088908;28;20059;-67
2022/11/19 10:02:52;;;;;;;10.13;8.38;;;;;;;;;;5085861;28;20120;-69
2022/11/19 10:05:38;;;;;;;10.63;8.75;;;;;;;;;;5085861;28;20050;-66
2022/11/19 10:08:07;;;;;;;12.20;9.32;;;;;;;;;;5072315;28;20051;-68
2022/11/19 10:10:40;;;;;;;10.73;9.00;;;;;;;;;;5086982;28;20055;-68
2022/11/19 10:13:12;;;;;;;;;;;;;;;;;;5087697;28;20527;-67
2022/11/19 10:15:55;;;;;;;10.52;8.60;;;;;;;;;;5087707;27;19919;-67
2022/11/19 10:18:29;;;;;;;9.38;8.00;;;;;;;;;;5105678;28;20521;-68
2022/11/19 10:21:01;;;;;;;13.73;8.52;;;;;;;;;;5087586;28;20039;-67
2022/11/19 10:23:34;;;;;;;9.20;8.10;;;;;;;;;;5087091;28;20044;-70
2022/11/19 10:26:03;;;;;;;10.98;8.63;;;;;;;;;;5109733;27;20044;-70
2022/11/19 10:28:31;;;;;;;11.05;8.82;;;;;;;;;;5107444;27;20047;-69
2022/11/19 10:31:23;;;;;;;12.88;9.27;;;;;;;;;;5085267;27;20051;-68
2022/11/19 10:33:51;;;;;;;11.85;8.18;;;;;;;;;;5066891;28;20044;-69
2022/11/19 10:36:20;;;;;;;9.98;8.20;;;;;;;;;;5074701;28;20050;-68
2022/11/19 10:38:49;;;;;;;9.95;8.00;;;;;;;;;;5106471;28;20055;-68
2022/11/19 10:41:17;;;;;;;9.60;8.32;;;;;;;;;;5087168;28;20539;-68
2022/11/19 10:43:47;;;;;;;8.90;7.90;;;;;;;;;;5103850;27;20036;-69
2022/11/19 10:46:18;;;;;;;10.10;8.00;;;;;;;;;;5084040;28;20510;-67
2022/11/19 10:48:47;;;;;;;9.27;8.15;;;;;;;;;;5086237;28;20074;-67
2022/11/19 10:51:16;;;;;;;9.35;8.15;;;;;;;;;;5082656;28;20047;-67
2022/11/19 10:53:44;;;;;;;10.57;7.63;;;;;;;;;;5083065;28;20063;-70
2022/11/19 10:56:24;;;;;;;10.52;8.55;;;;;;;;;;5107810;28;20039;-68
2022/11/19 10:58:53;;;;;;;9.07;7.60;;;;;;;;;;5086475;28;20051;-70
2022/11/19 11:01:25;;;;;;;8.35;6.75;;;;;;;;;;5103939;28;20635;-70
2022/11/19 11:04:00;;;;;;;8.63;7.38;;;;;;;;;;5087485;28;20040;-70
2022/11/19 11:06:25;;;;;;;9.27;7.00;;;;;;;;;;5064088;28;20036;-69
2022/11/19 11:08:55;;;;;;;14.32;10.30;;;;;;;;;;5094281;28;20103;-69
2022/11/19 11:17:03;;;;;;;7.40;6.32;;;;;;;;;;5088113;28;20067;-67
2022/11/19 11:19:31;;;;;;;7.35;6.22;;;;;;;;;;5088104;28;20120;-67
2022/11/19 11:21:57;;;;;;;12.02;9.75;;;;;;;;;;5104366;28;20435;-69
2022/11/19 11:24:34;;;;;;;10.85;8.32;;;;;;;;;;5102488;28;20039;-68
2022/11/19 11:27:18;;;;;;;7.72;5.95;;;;;;;;;;5066002;28;20502;-68
2022/11/19 11:29:44;;;;;;;9.05;6.20;;;;;;;;;;5083344;28;20105;-68
2022/11/19 11:32:29;;;;;;;6.97;5.75;;;;;;;;;;5089193;28;20044;-69
2022/11/19 11:34:55;;;;;;;7.28;5.72;;;;;;;;;;5103302;28;20462;-68
2022/11/19 11:37:22;;;;;;;8.90;7.50;;;;;;;;;;5080848;28;20048;-67
2022/11/19 11:39:49;;;;;;;12.43;8.93;;;;;;;;;;5105371;28;20055;-68
2022/11/19 11:42:19;;;;;;;11.60;6.20;;;;;;;;;;5079125;28;20443;-67
2022/11/19 11:44:53;;;;;;;6.90;5.22;;;;;;;;;;5079337;28;20498;-66
2022/11/19 11:47:21;;;;;;;16.80;12.00;;;;;;;;;;5081856;28;20048;-69
2022/11/19 11:49:50;;;;;;;5.78;5.10;;;;;;;;;;5066664;28;20067;-69
2022/11/19 11:52:18;;;;;;;5.93;5.32;;;;;;;;;;5107264;27;20051;-68
2022/11/19 11:54:58;;;;;;;7.25;5.88;;;;;;;;;;5092021;28;20035;-68
2022/11/19 11:57:27;;;;;;;6.35;5.72;;;;;;;;;;5091329;28;20502;-68
2022/11/19 11:59:53;;;;;;;9.23;6.32;;;;;;;;;;5093752;27;20047;-68
2022/11/19 12:02:20;;;;;;;7.45;5.80;;;;;;;;;;5094412;28;20187;-66
2022/11/19 12:04:46;;;;;;;7.30;5.70;;;;;;;;;;5112024;27;20522;-67
2022/11/19 12:07:17;;;;;;;7.47;6.68;;;;;;;;;;5105949;28;20185;-69
2022/11/19 12:09:43;;;;;;;11.00;9.45;;;;;;;;;;5092208;27;20133;-68
2022/11/19 12:12:38;;;;;;;6.75;5.50;;;;;;;;;;5093344;28;20196;-69
2022/11/19 12:15:20;;;;;;;6.97;5.60;;;;;;;;;;5088669;27;20054;-68
2022/11/19 12:17:49;;;;;;;5.70;5.10;;;;;;;;;;5100926;28;20055;-68
2022/11/19 12:20:21;;;;;;;5.70;5.10;;;;;;;;;;5081515;28;20040;-68
2022/11/19 12:23:10;;;;;;;6.57;5.33;;;;;;;;;;5099332;28;20113;-69
2022/11/19 12:25:39;;;;;;;8.63;5.35;;;;;;;;;;5097447;27;20333;-69
2022/11/19 12:28:24;;;;;;;5.40;4.88;;;;;;;;;;5084314;28;20130;-68
2022/11/19 12:30:50;;;;;;;6.97;5.80;;;;;;;;;;5088139;28;20097;-68
2022/11/19 12:33:28;;;;;;;5.53;4.80;;;;;;;;;;5098985;28;20044;-68
2022/11/19 12:36:04;;;;;;;6.38;5.07;;;;;;;;;;5066046;28;20138;-68
2022/11/19 12:38:35;;;;;;;4.95;4.45;;;;;;;;;;5080475;28;20075;-66
2022/11/19 12:41:07;;;;;;;5.18;4.60;;;;;;;;;;5084415;28;20056;-67
2022/11/19 12:43:52;;;;;;;4.50;4.10;;;;;;;;;;5102779;28;20145;-68
2022/11/19 12:46:33;;;;;;;5.07;4.40;;;;;;;;;;5092691;27;20482;-67
2022/11/19 12:49:06;;;;;;;4.65;4.20;;;;;;;;;;5090199;28;20044;-67
2022/11/19 12:51:51;;;;;;;7.63;5.07;;;;;;;;;;5090421;27;20117;-67
2022/11/19 12:54:31;;;;;;;4.85;4.38;;;;;;;;;;5088402;28;20059;-67
2022/11/19 12:57:14;;;;;;;8.55;4.07;;;;;;;;;;5081721;28;20491;-68
2022/11/19 12:59:40;;;;;;;;;;;;;;;;;;5089645;28;20611;-68
2022/11/19 13:02:14;;;;;;;4.45;4.05;;;;;;;;;;5085561;28;20006;-68
2022/11/19 13:04:44;;;;;;;4.93;4.38;;;;;;;;;;5096946;28;20394;-67
2022/11/19 13:07:13;;;;;;;4.80;4.38;;;;;;;;;;5077013;28;20039;-67
2022/11/19 13:09:43;;;;;;;5.30;4.60;;;;;;;;;;5081648;28;20048;-67
2022/11/19 13:12:14;;;;;;;5.85;4.50;;;;;;;;;;5089411;28;20051;-69
2022/11/19 13:15:01;;;;;;;4.30;3.90;;;;;;;;;;5086677;28;20439;-68
2022/11/19 13:17:27;;;;;;;5.40;4.90;;;;;;;;;;5090855;28;20051;-67
2022/11/19 13:19:57;;;;;;;5.10;4.60;;;;;;;;;;5085827;28;20047;-69
2022/11/19 13:22:25;;;;;;;5.50;5.00;;;;;;;;;;5084040;28;20123;-68
2022/11/19 13:24:58;;;;;;;4.97;4.32;;;;;;;;;;5086090;28;20504;-67
2022/11/19 13:27:24;;;;;;;;;;;;;;;;;;5084248;28;20052;-67
2022/11/19 13:29:53;;;;;;;4.75;4.13;;;;;;;;;;5085968;28;19916;-67
2022/11/19 13:32:25;;;;;;;5.22;4.72;;;;;;;;;;5084325;28;20048;-67
2022/11/19 13:35:00;;;;;;;4.65;4.25;;;;;;;;;;5090980;28;20036;-68
2022/11/19 13:37:26;;;;;;;4.70;4.20;;;;;;;;;;5081969;28;20051;-67
2022/11/19 13:39:55;;;;;;;4.78;4.28;;;;;;;;;;5094215;28;20031;-67
2022/11/19 13:45:17;;;;;;;4.38;3.97;;;;;;;;;;5058342;28;20052;-67
2022/11/19 13:47:49;;;;;;;4.72;4.22;;;;;;;;;;5084589;28;20073;-68
2022/11/19 13:50:21;;;;;;;7.07;4.15;;;;;;;;;;5085862;28;20142;-67
2022/11/19 13:52:57;;;;;;;4.90;4.40;;;;;;;;;;5089510;28;20043;-67
2022/11/19 13:55:26;;;;;;;4.30;3.90;;;;;;;;;;5095440;28;20095;-67
2022/11/19 13:57:52;;;;;;;4.82;4.30;;;;;;;;;;5088294;28;20051;-68
2022/11/19 14:00:27;;;;;;;6.18;4.63;;;;;;;;;;5108083;28;20398;-67
2022/11/19 14:03:02;;;;;;;5.07;4.32;;;;;;;;;;5102665;28;20100;-68
2022/11/19 14:05:44;;;;;;;4.90;4.20;;;;;;;;;;5080151;28;20407;-70
2022/11/19 14:08:19;;;;;;;5.55;4.55;;;;;;;;;;5090329;27;20050;-69
2022/11/19 14:10:56;;;;;;;5.28;4.50;;;;;;;;;;5088340;28;20082;-69
2022/11/19 14:13:22;;;;;;;5.53;4.10;;;;;;;;;;5094207;28;20130;-67
2022/11/19 14:27:18;;;;;;;4.70;4.15;;;;;;;;;;5089700;28;20043;-68
2022/11/19 14:29:44;;;;;;;4.57;4.05;;;;;;;;;;5091476;28;20138;-68
2022/11/19 14:32:10;;;;;;;4.90;4.30;;;;;;;;;;5074998;28;20128;-69
2022/11/19 14:34:41;;;;;;;6.57;4.15;;;;;;;;;;5107666;28;20043;-66
2022/11/19 14:37:22;;;;;;;4.88;4.13;;;;;;;;;;5097308;27;20048;-68
2022/11/19 14:39:53;;;;;;;5.32;4.05;;;;;;;;;;5089767;28;20044;-69
2022/11/19 14:42:21;;;;;;;5.35;4.45;;;;;;;;;;5087686;28;20510;-67
2022/11/19 14:45:10;;;;;;;5.28;4.13;;;;;;;;;;5106190;28;20134;-69
2022/11/19 14:47:38;;;;;;;6.47;3.92;;;;;;;;;;5097217;28;20071;-69
2022/11/19 14:50:20;;;;;;;5.13;4.40;;;;;;;;;;5090730;28;20405;-69
2022/11/19 14:52:51;;;;;;;5.88;4.35;;;;;;;;;;5101923;28;20093;-68
2022/11/19 14:55:27;;;;;;;4.65;4.20;;;;;;;;;;5099841;28;20510;-69
2022/11/19 14:58:06;;;;;;;4.80;4.30;;;;;;;;;;5086180;28;20078;-67
2022/11/19 15:00:36;;;;;;;4.60;4.20;;;;;;;;;;5085770;28;20043;-67
2022/11/19 15:03:04;;;;;;;5.18;4.32;;;;;;;;;;5089717;28;20031;-69
2022/11/19 15:05:33;;;;;;;5.28;4.53;;;;;;;;;;5081380;28;20768;-68
2022/11/19 15:08:27;;;;;;;5.60;4.40;;;;;;;;;;5091112;28;20398;-68
2022/11/19 15:11:05;;;;;;;8.07;5.53;;;;;;;;;;5083733;28;20047;-68
2022/11/19 15:13:39;;;;;;;6.05;4.70;;;;;;;;;;5090988;28;20180;-68
2022/11/19 15:16:22;;;;;;;5.57;4.57;;;;;;;;;;5084200;28;20040;-67
2022/11/19 15:18:48;;;;;;;;;;;;;;;;;;5083519;28;20043;-67
2022/11/19 15:21:20;;;;;;;4.97;4.40;;;;;;;;;;5093048;28;20006;-67
2022/11/19 15:24:05;;;;;;;5.30;4.40;;;;;;;;;;5087811;28;20048;-67
2022/11/19 15:26:31;;;;;;;5.90;4.55;;;;;;;;;;5108689;28;20052;-67
2022/11/19 15:29:00;;;;;;;4.55;4.10;;;;;;;;;;5096072;28;20044;-67
2022/11/19 15:31:26;;;;;;;7.68;4.65;;;;;;;;;;5067584;28;20054;-66